Time;durP1;ratioP1;P1;durP2;ratioP2;P2;SDS_P1;SDS_P2;PMS_P1;PMS_P2;Temp;Humidity;BMP_temperature;BMP_pressure;BME280_temperature;BME280_humidity;BME280_pressure;Samples;Min_cycle;Max_cycle;Signal;HPM_P1;HPM_P2
2022/05/09 00:01:22;;;;;;;;;;;;;;;21.28;31.21;98476.69;5038453;28;868;-76
2022/05/09 00:03:48;;;;;;;;;;;;;;;21.25;31.09;98471.91;5038270;28;870;-75
2022/05/09 00:06:13;;;;;;;;;;;;;;;21.42;30.81;98480.53;5038215;28;1973;-76
2022/05/09 00:08:42;;;;;;;;;;;;;;;21.77;30.96;98476.22;5038572;28;904;-76
2022/05/09 00:11:08;;;;;;;;;;;;;;;21.73;31.06;98481.94;5038088;28;965;-76
2022/05/09 00:13:34;;;;;;;;;;;;;;;21.93;30.49;98481.16;5037883;28;943;-76
2022/05/09 00:16:00;;;;;;;;;;;;;;;21.65;30.86;98482.50;5038102;28;1104;-75
2022/05/09 00:18:25;;;;;;;;;;;;;;;21.48;30.67;98488.09;5037984;28;1032;-75
2022/05/09 00:20:51;;;;;;;;;;;;;;;21.33;30.80;98481.06;5038164;28;960;-76
2022/05/09 00:23:16;;;;;;;;;;;;;;;21.50;30.67;98479.16;5038250;28;1017;-75
2022/05/09 00:25:41;;;;;;;;;;;;;;;21.38;30.73;98488.28;5038059;28;1973;-76
2022/05/09 00:28:07;;;;;;;;;;;;;;;21.36;30.90;98485.09;5037710;28;952;-76
2022/05/09 00:30:32;;;;;;;;;;;;;;;21.57;31.24;98479.03;5038059;28;1057;-75
2022/05/09 00:32:58;;;;;;;;;;;;;;;21.85;30.84;98478.47;5037538;28;927;-76
2022/05/09 00:35:24;;;;;;;;;;;;;;;21.77;30.49;98482.69;5037256;28;891;-75
2022/05/09 00:37:49;;;;;;;;;;;;;;;21.49;30.48;98472.69;5037378;28;967;-76
2022/05/09 00:40:16;;;;;;;;;;;;;;;21.49;30.54;98486.03;5037603;28;942;-75
2022/05/09 00:42:45;;;;;;;;;;;;;;;21.25;31.03;98474.72;5037595;28;922;-75
2022/05/09 00:45:11;;;;;;;;;;;;;;;21.41;30.99;98474.06;5015365;28;1103;-76
2022/05/09 00:47:37;;;;;;;;;;;;;;;21.32;30.95;98474.63;5015122;28;1993;-75
2022/05/09 00:50:02;;;;;;;;;;;;;;;21.40;31.09;98468.81;5015402;28;919;-75
2022/05/09 00:52:28;;;;;;;;;;;;;;;21.23;31.46;98473.53;5031543;28;987;-76
2022/05/09 00:55:06;;;;;;;;;;;;;;;21.35;31.39;98477.81;5014628;28;1044;-75
2022/05/09 00:57:31;;;;;;;;;;;;;;;21.31;31.16;98478.69;4999089;28;966;-75
2022/05/09 00:59:59;;;;;;;;;;;;;;;21.51;31.27;98475.91;5015270;28;1001;-76
2022/05/09 01:02:25;;;;;;;;;;;;;;;21.78;30.82;98469.31;5015094;28;1017;-76
2022/05/09 01:04:53;;;;;;;;;;;;;;;21.67;30.45;98465.91;4995292;28;990;-75
2022/05/09 01:07:19;;;;;;;;;;;;;;;21.67;30.31;98475.19;4995238;28;1914;-76
2022/05/09 01:09:44;;;;;;;;;;;;;;;21.48;30.44;98464.63;4975392;28;947;-76
2022/05/09 01:12:10;;;;;;;;;;;;;;;21.41;30.70;98461.94;4975889;28;909;-76
2022/05/09 01:14:36;;;;;;;;;;;;;;;21.37;30.86;98461.22;4959955;28;1043;-75
2022/05/09 01:17:01;;;;;;;;;;;;;;;21.41;30.65;98464.78;4920825;29;1193;-75
2022/05/09 01:19:30;;;;;;;;;;;;;;;21.45;31.20;98459.81;4936828;29;1017;-76
2022/05/09 01:21:56;;;;;;;;;;;;;;;21.57;31.25;98460.00;4937389;29;1023;-75
2022/05/09 01:24:22;;;;;;;;;;;;;;;21.84;30.74;98464.75;4917706;29;1026;-76
2022/05/09 01:26:48;;;;;;;;;;;;;;;21.58;30.84;98460.81;4918306;29;1915;-76
2022/05/09 01:29:15;;;;;;;;;;;;;;;21.53;30.42;98461.31;4918159;29;1083;-76
2022/05/09 01:31:41;;;;;;;;;;;;;;;21.46;30.54;98465.06;4902275;29;1000;-75
2022/05/09 01:34:09;;;;;;;;;;;;;;;21.47;30.67;98460.22;4918312;29;898;-75
2022/05/09 01:36:35;;;;;;;;;;;;;;;21.31;31.15;98456.03;4917884;29;1541;-75
2022/05/09 01:39:01;;;;;;;;;;;;;;;21.18;31.25;98460.69;4918109;29;1187;-75
2022/05/09 01:41:27;;;;;;;;;;;;;;;21.30;30.95;98462.16;4918175;29;1294;-75
2022/05/09 01:43:55;;;;;;;;;;;;;;;21.28;31.21;98461.72;4898848;29;975;-75
2022/05/09 01:46:26;;;;;;;;;;;;;;;21.33;30.94;98459.22;4877157;29;1922;-76
2022/05/09 01:51:37;;;;;;;;;;;;;;;21.87;30.36;98454.59;4861813;29;993;-75
2022/05/09 01:54:02;;;;;;;;;;;;;;;21.61;30.42;98457.13;4867756;29;992;-76
2022/05/09 01:56:29;;;;;;;;;;;;;;;21.57;30.16;98464.88;4916024;29;1048;-75
2022/05/09 01:58:54;;;;;;;;;;;;;;;21.50;30.20;98462.16;4917554;29;1024;-76
2022/05/09 02:01:20;;;;;;;;;;;;;;;21.39;30.52;98461.56;4898641;29;1008;-75
2022/05/09 02:03:45;;;;;;;;;;;;;;;21.24;30.90;98466.66;4898924;29;1007;-75
2022/05/09 02:06:15;;;;;;;;;;;;;;;21.44;30.70;98458.22;4897919;29;1895;-75
2022/05/09 02:08:40;;;;;;;;;;;;;;;21.58;31.46;98455.13;4898497;29;997;-76
2022/05/09 02:11:06;;;;;;;;;;;;;;;21.77;30.62;98462.84;4898742;29;1028;-76
2022/05/09 02:13:31;;;;;;;;;;;;;;;21.65;30.33;98463.47;4844061;29;1061;-76
2022/05/09 02:15:57;;;;;;;;;;;;;;;21.33;30.80;98466.91;4860509;29;989;-76
2022/05/09 02:18:23;;;;;;;;;;;;;;;21.43;30.40;98457.44;4896578;29;1022;-76
2022/05/09 02:20:48;;;;;;;;;;;;;;;21.38;31.00;98457.13;4898811;29;976;-75
2022/05/09 02:23:14;;;;;;;;;;;;;;;21.32;30.83;98454.00;4898585;29;1110;-76
2022/05/09 02:25:41;;;;;;;;;;;;;;;21.35;30.64;98460.81;4842866;29;1998;-75
2022/05/09 02:28:09;;;;;;;;;;;;;;;21.49;30.86;98454.91;4851748;29;975;-76
2022/05/09 02:30:35;;;;;;;;;;;;;;;21.84;30.33;98454.19;4879996;29;988;-76
2022/05/09 02:33:01;;;;;;;;;;;;;;;21.78;30.49;98449.50;4875750;29;956;-76
2022/05/09 02:35:27;;;;;;;;;;;;;;;21.44;30.67;98450.53;4879881;29;1060;-76
2022/05/09 02:37:53;;;;;;;;;;;;;;;21.36;30.58;98454.75;4880033;29;1024;-76
2022/05/09 02:40:18;;;;;;;;;;;;;;;21.33;30.65;98455.59;4893802;29;941;-76
2022/05/09 02:42:43;;;;;;;;;;;;;;;21.48;30.81;98448.44;4898447;29;999;-75
2022/05/09 02:45:09;;;;;;;;;;;;;;;21.31;30.99;98456.03;4917146;29;1000;-75
2022/05/09 02:47:35;;;;;;;;;;;;;;;21.27;31.13;98454.47;4916853;29;1907;-75
2022/05/09 02:50:00;;;;;;;;;;;;;;;21.14;31.56;98456.31;4919165;29;1100;-76
2022/05/09 02:52:26;;;;;;;;;;;;;;;21.46;31.43;98455.78;4935975;29;926;-76
2022/05/09 02:54:51;;;;;;;;;;;;;;;21.76;30.57;98458.44;4904582;29;1021;-76
2022/05/09 02:57:17;;;;;;;;;;;;;;;21.77;30.57;98451.53;4965503;28;978;-76
2022/05/09 02:59:42;;;;;;;;;;;;;;;21.52;30.54;98468.19;4974707;28;1125;-76
2022/05/09 03:02:09;;;;;;;;;;;;;;;21.40;30.69;98463.16;4974740;28;951;-75
2022/05/09 03:04:41;;;;;;;;;;;;;;;21.44;30.62;98459.03;4960251;28;967;-76
2022/05/09 03:07:07;;;;;;;;;;;;;;;21.40;31.08;98463.16;4955225;29;1903;-76
2022/05/09 03:09:33;;;;;;;;;;;;;;;21.31;31.06;98467.38;4955450;29;952;-76
2022/05/09 03:11:58;;;;;;;;;;;;;;;21.31;31.40;98473.03;4954989;29;1019;-76
2022/05/09 03:14:24;;;;;;;;;;;;;;;21.33;31.29;98470.56;4985285;28;1033;-76
2022/05/09 03:16:49;;;;;;;;;;;;;;;21.41;31.08;98474.06;4993720;28;983;-76
2022/05/09 03:19:15;;;;;;;;;;;;;;;21.36;31.25;98468.09;4997265;28;1097;-76
2022/05/09 03:21:40;;;;;;;;;;;;;;;21.43;31.33;98467.97;4997592;28;1210;-76
2022/05/09 03:24:07;;;;;;;;;;;;;;;21.51;31.22;98469.44;4997363;28;981;-75
2022/05/09 03:26:33;;;;;;;;;;;;;;;21.78;30.46;98466.47;4997434;28;1914;-76
2022/05/09 03:28:58;;;;;;;;;;;;;;;21.63;30.54;98477.28;4997432;28;1103;-76
2022/05/09 03:31:24;;;;;;;;;;;;;;;21.43;30.69;98480.09;4997267;28;985;-76
2022/05/09 03:33:49;;;;;;;;;;;;;;;21.31;30.45;98472.22;4997471;28;1010;-75
2022/05/09 03:36:15;;;;;;;;;;;;;;;21.44;30.42;98475.22;4997337;28;1014;-76
2022/05/09 03:38:40;;;;;;;;;;;;;;;21.22;31.12;98481.22;4996779;28;1004;-76
2022/05/09 03:41:05;;;;;;;;;;;;;;;21.30;30.95;98479.94;4996940;28;1012;-76
2022/05/09 03:43:31;;;;;;;;;;;;;;;21.19;31.21;98482.13;4997098;28;1121;-75
2022/05/09 03:45:57;;;;;;;;;;;;;;;21.38;30.98;98482.63;4996581;28;1981;-75
2022/05/09 03:48:22;;;;;;;;;;;;;;;21.29;30.87;98481.09;5010829;28;1139;-75
2022/05/09 03:50:47;;;;;;;;;;;;;;;21.51;31.17;98492.09;5016334;28;1032;-76
2022/05/09 03:53:13;;;;;;;;;;;;;;;21.75;30.62;98484.34;5016324;28;948;-76
2022/05/09 03:55:38;;;;;;;;;;;;;;;21.92;30.20;98486.03;5016268;28;1042;-75
2022/05/09 03:58:04;;;;;;;;;;;;;;;21.53;30.64;98486.78;5016202;28;1069;-76
2022/05/09 04:00:32;;;;;;;;;;;;;;;21.46;30.47;98478.44;4999712;28;1006;-76
2022/05/09 04:02:57;;;;;;;;;;;;;;;21.38;30.66;98482.63;5016229;28;1089;-76
2022/05/09 04:05:23;;;;;;;;;;;;;;;21.42;30.76;98483.34;5016249;28;1092;-76
2022/05/09 04:07:49;;;;;;;;;;;;;;;21.38;30.69;98493.94;4999413;28;1985;-75
2022/05/09 04:10:16;;;;;;;;;;;;;;;21.32;31.00;98496.47;5015917;28;1025;-76
2022/05/09 04:12:41;;;;;;;;;;;;;;;21.32;30.79;98491.59;4996133;28;1034;-76
2022/05/09 04:17:52;;;;;;;;;;;;;;;21.94;30.26;98492.06;4996270;28;1052;-76
2022/05/09 04:20:17;;;;;;;;;;;;;;;21.61;30.46;98490.31;4996114;28;1059;-76
2022/05/09 04:22:42;;;;;;;;;;;;;;;21.34;30.63;98488.34;4996045;28;1080;-75
2022/05/09 04:25:09;;;;;;;;;;;;;;;21.22;30.79;98486.91;4995965;28;1080;-75
2022/05/09 04:27:35;;;;;;;;;;;;;;;21.32;31.43;98491.59;4995931;28;1981;-75
2022/05/09 04:30:01;;;;;;;;;;;;;;;21.70;30.51;98488.47;4995278;28;1071;-76
2022/05/09 04:32:26;;;;;;;;;;;;;;;21.73;30.11;98501.78;4996324;28;936;-76
2022/05/09 04:34:52;;;;;;;;;;;;;;;21.56;30.01;98497.25;4995935;28;979;-76
2022/05/09 04:37:17;;;;;;;;;;;;;;;21.39;30.51;98498.38;4995832;28;1243;-76
2022/05/09 04:39:43;;;;;;;;;;;;;;;21.29;30.41;98498.09;4995835;28;1075;-75
2022/05/09 04:42:09;;;;;;;;;;;;;;;21.19;30.28;98499.09;4995709;28;1077;-75
2022/05/09 04:44:35;;;;;;;;;;;;;;;21.62;30.38;98498.34;5032156;28;985;-76
2022/05/09 04:47:00;;;;;;;;;;;;;;;21.82;29.78;98502.00;5037423;28;1983;-76
2022/05/09 04:49:25;;;;;;;;;;;;;;;21.82;29.68;98502.00;5037509;28;1008;-76
2022/05/09 04:51:51;;;;;;;;;;;;;;;21.51;29.96;98509.09;5037900;28;1009;-76
2022/05/09 04:54:16;;;;;;;;;;;;;;;21.31;30.21;98501.31;5037448;28;978;-76
2022/05/09 04:56:42;;;;;;;;;;;;;;;21.31;30.00;98512.66;5037087;28;977;-76
2022/05/09 04:59:10;;;;;;;;;;;;;;;21.20;30.66;98514.84;5018748;28;1063;-76
2022/05/09 05:01:35;;;;;;;;;;;;;;;21.56;29.85;98517.09;5018378;28;1104;-76
2022/05/09 05:04:04;;;;;;;;;;;;;;;21.85;29.29;98518.13;5036992;28;1035;-76
2022/05/09 05:06:30;;;;;;;;;;;;;;;21.72;29.42;98514.34;5019076;28;1979;-76
2022/05/09 05:08:56;;;;;;;;;;;;;;;21.43;29.79;98518.91;5036073;28;2128;-76
2022/05/09 05:11:21;;;;;;;;;;;;;;;21.41;29.55;98524.22;5035513;28;1907;-76
2022/05/09 05:13:47;;;;;;;;;;;;;;;21.16;30.13;98525.41;5036290;28;1482;-76
2022/05/09 05:16:12;;;;;;;;;;;;;;;21.47;29.99;98516.84;5034285;28;2202;-77
2022/05/09 05:18:38;;;;;;;;;;;;;;;21.62;29.58;98526.66;5035349;28;1706;-76
2022/05/09 05:21:08;;;;;;;;;;;;;;;21.96;29.07;98528.44;5036697;28;1341;-77
2022/05/09 05:23:33;;;;;;;;;;;;;;;21.55;29.22;98523.94;5036518;28;799;-77
2022/05/09 05:26:00;;;;;;;;;;;;;;;21.40;29.55;98529.09;5036791;28;1952;-77
2022/05/09 05:28:26;;;;;;;;;;;;;;;21.36;29.63;98524.72;5036615;28;945;-77
2022/05/09 05:30:53;;;;;;;;;;;;;;;21.47;29.79;98526.13;5034961;28;1676;-77
2022/05/09 05:33:21;;;;;;;;;;;;;;;21.66;29.16;98533.06;5035288;28;1897;-76
2022/05/09 05:35:47;;;;;;;;;;;;;;;21.77;28.94;98528.00;5035573;28;1867;-77
2022/05/09 05:38:12;;;;;;;;;;;;;;;21.61;29.05;98542.06;5034250;28;1639;-76
2022/05/09 05:40:39;;;;;;;;;;;;;;;21.38;29.37;98545.69;5030722;28;1941;-77
2022/05/09 05:43:04;;;;;;;;;;;;;;;21.25;29.55;98548.31;5031820;28;1723;-76
2022/05/09 05:45:29;;;;;;;;;;;;;;;21.21;29.40;98541.91;5035078;28;1809;-77
2022/05/09 05:47:55;;;;;;;;;;;;;;;21.53;29.35;98541.38;5031378;28;2056;-76
2022/05/09 05:50:21;;;;;;;;;;;;;;;21.81;28.71;98548.56;5015885;28;1640;-76
2022/05/09 05:52:47;;;;;;;;;;;;;;;21.78;28.68;98546.59;4999306;28;970;-77
2022/05/09 05:55:12;;;;;;;;;;;;;;;21.44;29.44;98548.81;5016409;28;2077;-77
2022/05/09 05:57:38;;;;;;;;;;;;;;;21.28;29.18;98555.94;5015498;28;1617;-76
2022/05/09 06:00:07;;;;;;;;;;;;;;;21.31;29.11;98557.16;5016526;28;1186;-77
2022/05/09 06:02:41;;;;;;;;;;;;;;;21.16;29.27;98556.53;5014803;28;1655;-76
2022/05/09 06:05:07;;;;;;;;;;;;;;;21.54;28.96;98553.50;5016484;28;978;-76
2022/05/09 06:07:33;;;;;;;;;;;;;;;21.78;28.56;98560.75;4992920;28;1988;-76
2022/05/09 06:10:01;;;;;;;;;;;;;;;21.64;28.80;98563.84;4994459;28;1076;-76
2022/05/09 06:12:26;;;;;;;;;;;;;;;21.35;28.93;98565.56;4955148;29;1897;-77
2022/05/09 06:17:36;;;;;;;;;;;;;;;21.11;29.29;98568.34;4953893;29;1751;-77
2022/05/09 06:20:03;;;;;;;;;;;;;;;21.47;29.11;98571.41;4954822;29;1818;-77
2022/05/09 06:22:29;;;;;;;;;;;;;;;21.67;28.59;98571.50;4954011;29;1860;-76
2022/05/09 06:24:58;;;;;;;;;;;;;;;21.78;28.53;98574.91;4954836;29;1510;-77
2022/05/09 06:27:23;;;;;;;;;;;;;;;21.51;28.85;98574.19;4955240;29;1914;-76
2022/05/09 06:29:49;;;;;;;;;;;;;;;21.35;28.79;98579.72;4955234;28;1098;-77
2022/05/09 06:32:18;;;;;;;;;;;;;;;21.27;29.10;98576.19;4923621;29;1075;-77
2022/05/09 06:34:44;;;;;;;;;;;;;;;21.28;29.00;98581.41;4955607;29;983;-76
2022/05/09 06:37:09;;;;;;;;;;;;;;;21.59;29.06;98572.81;4955499;29;958;-76
2022/05/09 06:39:35;;;;;;;;;;;;;;;21.95;27.99;98577.84;4955330;29;1051;-76
2022/05/09 06:42:00;;;;;;;;;;;;;;;21.59;28.71;98579.28;4955305;29;1030;-76
2022/05/09 06:44:29;;;;;;;;;;;;;;;21.40;29.02;98579.22;4952939;29;1390;-77
2022/05/09 06:46:55;;;;;;;;;;;;;;;21.36;29.03;98584.16;4955383;29;1914;-76
2022/05/09 06:49:22;;;;;;;;;;;;;;;21.07;29.62;98570.41;4974433;28;1093;-76
2022/05/09 06:51:48;;;;;;;;;;;;;;;21.24;29.22;98583.50;4994293;28;1482;-77
2022/05/09 06:54:16;;;;;;;;;;;;;;;21.53;28.83;98585.88;4997621;28;931;-76
2022/05/09 06:56:42;;;;;;;;;;;;;;;21.77;28.73;98584.66;4985362;28;1890;-77
2022/05/09 06:59:07;;;;;;;;;;;;;;;21.71;28.50;98580.72;4984331;28;2109;-77
2022/05/09 07:01:33;;;;;;;;;;;;;;;21.32;28.88;98587.03;4979650;28;1700;-77
2022/05/09 07:03:58;;;;;;;;;;;;;;;21.22;29.33;98594.44;4991835;28;1876;-76
2022/05/09 07:06:24;;;;;;;;;;;;;;;21.19;28.99;98592.47;4982805;28;2051;-76
2022/05/09 07:08:49;;;;;;;;;;;;;;;21.39;29.19;98592.56;4995736;28;1069;-76
2022/05/09 07:11:15;;;;;;;;;;;;;;;21.58;28.81;98605.22;4997467;28;1009;-77
2022/05/09 07:13:41;;;;;;;;;;;;;;;21.82;28.35;98598.31;4997428;28;1083;-76
2022/05/09 07:16:08;;;;;;;;;;;;;;;21.50;28.48;98600.91;5029990;28;1042;-76
2022/05/09 07:18:34;;;;;;;;;;;;;;;21.33;28.91;98603.59;5038752;28;982;-76
2022/05/09 07:21:00;;;;;;;;;;;;;;;21.26;29.24;98606.50;5039092;28;948;-76
2022/05/09 07:23:26;;;;;;;;;;;;;;;21.30;29.22;98606.50;5004088;28;992;-77
2022/05/09 07:25:52;;;;;;;;;;;;;;;21.60;28.85;98602.75;5004875;28;1902;-76
2022/05/09 07:28:21;;;;;;;;;;;;;;;21.75;28.55;98606.94;5038486;28;1015;-76
2022/05/09 07:30:46;;;;;;;;;;;;;;;21.53;28.76;98602.88;5038799;28;1037;-76
2022/05/09 07:33:13;;;;;;;;;;;;;;;21.68;29.48;98609.91;4990109;28;1958;-78
2022/05/09 07:42:52;;;;;;;;;;;;;;;21.43;30.12;98606.69;5072184;28;1812;-74
2022/05/09 07:45:18;;;;;;;;;;;;;;;21.50;29.49;98612.22;5059311;28;1555;-77
2022/05/09 07:47:44;;;;;;;;;;;;;;;21.53;29.25;98617.03;5046807;28;1055;-77
2022/05/09 07:50:10;;;;;;;;;;;;;;;21.37;29.51;98611.25;5050665;28;1864;-77
2022/05/09 07:52:38;;;;;;;;;;;;;;;21.50;29.38;98609.38;5033976;28;2000;-77
2022/05/09 07:55:04;;;;;;;;;;;;;;;21.41;29.40;98607.13;5031447;28;1061;-77
2022/05/09 07:57:29;;;;;;;;;;;;;;;21.54;29.40;98615.78;5015002;28;1056;-78
2022/05/09 07:59:57;;;;;;;;;;;;;;;21.91;28.74;98605.44;5030730;28;1011;-78
2022/05/09 08:02:22;;;;;;;;;;;;;;;21.82;28.59;98615.31;4956826;28;1910;-78
2022/05/09 08:04:48;;;;;;;;;;;;;;;21.58;29.08;98622.22;4953025;29;962;-78
2022/05/09 08:07:13;;;;;;;;;;;;;;;21.65;29.00;98610.75;4937289;29;1010;-78
2022/05/09 08:09:39;;;;;;;;;;;;;;;21.44;29.10;98608.28;4953581;29;1044;-77
2022/05/09 08:12:05;;;;;;;;;;;;;;;21.49;29.13;98613.44;4934202;29;1034;-77
2022/05/09 08:14:30;;;;;;;;;;;;;;;21.46;29.18;98614.34;4895536;29;1727;-78
2022/05/09 08:16:56;;;;;;;;;;;;;;;21.63;29.12;98609.59;4880803;29;1180;-77
2022/05/09 08:19:22;;;;;;;;;;;;;;;22.08;28.43;98610.78;4877027;29;1134;-78
2022/05/09 08:21:50;;;;;;;;;;;;;;;22.16;28.13;98605.81;4892990;29;1973;-77
2022/05/09 08:24:16;;;;;;;;;;;;;;;22.30;27.81;98611.22;4895665;29;897;-77
2022/05/09 08:26:41;;;;;;;;;;;;;;;22.05;28.14;98605.19;4896062;29;1035;-78
2022/05/09 08:29:07;;;;;;;;;;;;;;;21.76;28.45;98611.38;4878595;29;1220;-77
2022/05/09 08:31:33;;;;;;;;;;;;;;;21.63;28.94;98613.22;4877064;29;1033;-77
2022/05/09 08:33:59;;;;;;;;;;;;;;;21.75;28.38;98614.63;4839786;29;1031;-77
2022/05/09 08:39:09;;;;;;;;;;;;;;;21.54;28.84;98612.97;4866520;29;1176;-77
2022/05/09 08:41:55;;;;;;;;;;;;;;;21.50;29.05;98615.88;4895380;29;1895;-77
2022/05/09 08:44:20;;;;;;;;;;;;;;;21.67;28.96;98613.97;4876806;29;1075;-77
2022/05/09 08:46:47;;;;;;;;;;;;;;;21.52;28.90;98612.59;4933352;29;1163;-77
2022/05/09 08:49:20;;;;;;;;;;;;;;;21.72;28.81;98616.31;4933725;28;1003;-77
2022/05/09 08:52:01;;;;;;;;;;;;;;;21.99;28.12;98615.44;4955338;28;1016;-77
2022/05/09 08:54:26;;;;;;;;;;;;;;;21.89;28.26;98610.75;4957834;29;922;-77
2022/05/09 08:56:56;;;;;;;;;;;;;;;21.73;28.58;98617.91;4958532;29;787;-77
2022/05/09 08:59:24;;;;;;;;;;;;;;;21.71;28.75;98609.06;4942317;29;1272;-77
2022/05/09 09:02:03;;;;;;;;;;;;;;;21.58;28.62;98610.88;4956797;28;1919;-77
2022/05/09 09:04:31;;;;;;;;;;;;;;;21.77;28.55;98624.31;5011814;28;862;-77
2022/05/09 09:06:56;;;;;;;;;;;;;;;21.66;28.79;98617.22;5038894;28;1058;-77
2022/05/09 09:09:25;;;;;;;;;;;;;;;21.61;28.61;98623.41;5038628;28;745;-78
2022/05/09 09:11:57;;;;;;;;;;;;;;;21.67;28.72;98624.50;5051494;28;1512;-76
2022/05/09 09:14:49;;;;;;;;;;;;;;;21.52;28.90;98618.28;5024541;28;1758;-77
2022/05/09 09:17:17;;;;;;;;;;;;;;;21.89;28.50;98607.91;5006148;28;1492;-78
2022/05/09 09:20:02;;;;;;;;;;;;;;;22.02;28.54;98612.53;5014967;28;1825;-77
2022/05/09 09:22:46;;;;;;;;;;;;;;;21.94;28.11;98611.06;5014512;28;1973;-77
2022/05/09 09:25:16;;;;;;;;;;;;;;;21.79;28.36;98616.16;5003348;28;1517;-77
2022/05/09 09:27:48;;;;;;;;;;;;;;;21.78;28.61;98608.91;4981514;28;1809;-76
2022/05/09 09:30:14;;;;;;;;;;;;;;;21.70;28.50;98613.09;4996446;28;1120;-78
2022/05/09 09:32:42;;;;;;;;;;;;;;;21.72;28.52;98610.66;5010439;28;1159;-75
2022/05/09 09:35:24;;;;;;;;;;;;;;;21.58;28.83;98616.53;4956821;29;976;-75
2022/05/09 09:37:53;;;;;;;;;;;;;;;21.68;28.76;98609.91;4957249;29;992;-75
2022/05/09 09:40:18;;;;;;;;;;;;;;;22.03;28.15;98619.00;4957407;29;1080;-75
2022/05/09 09:42:44;;;;;;;;;;;;;;;21.94;28.27;98604.59;4957028;29;1902;-75
2022/05/09 09:45:25;;;;;;;;;;;;;;;21.76;28.52;98617.06;4957029;29;980;-75
2022/05/09 09:48:04;;;;;;;;;;;;;;;21.46;29.08;98611.50;4957027;29;1001;-75
2022/05/09 09:50:30;;;;;;;;;;;;;;;21.39;29.03;98614.44;4957421;29;983;-75
2022/05/09 09:52:56;;;;;;;;;;;;;;;21.44;29.13;98608.28;4959266;28;1005;-75
2022/05/09 09:55:26;;;;;;;;;;;;;;;21.43;29.14;98601.03;5015806;28;1028;-75
2022/05/09 09:57:51;;;;;;;;;;;;;;;21.90;28.44;98603.84;5014987;28;1005;-75
2022/05/09 10:00:19;;;;;;;;;;;;;;;21.97;28.37;98604.53;5015479;28;899;-75
2022/05/09 10:02:46;;;;;;;;;;;;;;;21.59;28.99;98601.94;5015426;28;2100;-75
2022/05/09 10:05:15;;;;;;;;;;;;;;;21.57;28.55;98603.63;4997798;28;1009;-75
2022/05/09 10:07:44;;;;;;;;;;;;;;;21.47;28.76;98604.59;5015246;28;1006;-75
2022/05/09 10:10:13;;;;;;;;;;;;;;;21.51;29.15;98606.16;5014783;28;956;-75
2022/05/09 10:12:40;;;;;;;;;;;;;;;21.85;28.62;98597.44;5037612;28;1173;-76
2022/05/09 10:15:22;;;;;;;;;;;;;;;22.10;28.04;98601.84;5041479;28;2147;-75
2022/05/09 10:17:48;;;;;;;;;;;;;;;21.71;28.53;98603.38;5034522;28;947;-75
2022/05/09 10:20:24;;;;;;;;;;;;;;;21.65;28.65;98604.28;5034299;28;1150;-75
2022/05/09 10:25:36;;;;;;;;;;;;;;;21.53;28.75;98605.72;5014443;28;1176;-75
2022/05/09 10:28:14;;;;;;;;;;;;;;;21.73;28.92;98606.56;5014798;28;1166;-75
2022/05/09 10:30:40;;;;;;;;;;;;;;;21.94;28.27;98607.44;5014583;28;954;-75
2022/05/09 10:33:11;;;;;;;;;;;;;;;21.88;28.41;98612.00;5014393;28;1011;-75
2022/05/09 10:35:47;;;;;;;;;;;;;;;21.72;28.36;98610.66;5014696;28;1054;-75
2022/05/09 10:38:13;;;;;;;;;;;;;;;21.59;28.66;98606.81;4997696;28;956;-74
2022/05/09 10:40:43;;;;;;;;;;;;;;;21.45;28.79;98599.38;4994675;28;1906;-75
2022/05/09 10:43:22;;;;;;;;;;;;;;;21.43;29.07;98604.66;4994686;28;1055;-75
2022/05/09 10:45:48;;;;;;;;;;;;;;;21.90;28.34;98609.50;4987522;28;950;-75
2022/05/09 10:48:26;;;;;;;;;;;;;;;22.18;27.84;98613.91;4975276;28;920;-75
2022/05/09 10:50:51;;;;;;;;;;;;;;;21.72;28.54;98607.81;4975071;28;990;-75
2022/05/09 10:53:19;;;;;;;;;;;;;;;21.57;28.95;98604.41;4980222;28;1023;-74
2022/05/09 10:55:57;;;;;;;;;;;;;;;21.50;28.92;98604.56;5000042;28;984;-75
2022/05/09 10:58:25;;;;;;;;;;;;;;;21.46;29.07;98603.81;5014118;28;1073;-75
2022/05/09 11:01:01;;;;;;;;;;;;;;;21.50;29.09;98603.72;5014370;28;1902;-74
2022/05/09 11:03:37;;;;;;;;;;;;;;;21.98;28.00;98599.66;5013706;28;1009;-75
2022/05/09 11:06:11;;;;;;;;;;;;;;;22.10;27.76;98593.34;5014175;28;937;-75
2022/05/09 11:08:55;;;;;;;;;;;;;;;21.60;28.60;98608.41;5013733;28;1061;-75
2022/05/09 11:11:39;;;;;;;;;;;;;;;21.57;28.82;98609.28;5022129;28;1017;-75
2022/05/09 11:14:08;;;;;;;;;;;;;;;21.49;29.02;98602.13;5035733;28;924;-75
2022/05/09 11:16:40;;;;;;;;;;;;;;;21.41;29.13;98606.31;5035972;28;879;-75
2022/05/09 11:19:15;;;;;;;;;;;;;;;21.47;28.92;98613.09;5016897;28;1186;-75
2022/05/09 11:21:45;;;;;;;;;;;;;;;21.56;28.99;98602.03;5033600;28;1909;-75
2022/05/09 11:24:17;;;;;;;;;;;;;;;21.93;28.11;98597.31;5016714;28;1014;-75
2022/05/09 11:26:51;;;;;;;;;;;;;;;22.18;27.73;98603.34;5017110;28;989;-75
2022/05/09 11:29:19;;;;;;;;;;;;;;;21.83;28.09;98605.59;5033333;28;965;-75
2022/05/09 11:32:02;;;;;;;;;;;;;;;21.63;28.76;98601.91;5033442;28;1028;-75
2022/05/09 11:34:47;;;;;;;;;;;;;;;21.57;28.73;98603.63;5013492;28;1288;-75
2022/05/09 11:37:26;;;;;;;;;;;;;;;21.51;28.75;98605.34;4997050;28;956;-75
2022/05/09 11:40:01;;;;;;;;;;;;;;;21.51;28.83;98603.31;5013482;28;965;-75
2022/05/09 11:45:48;;;;;;;;;;;;;;;21.97;28.21;98603.75;4974043;28;1065;-75
2022/05/09 11:48:27;;;;;;;;;;;;;;;21.54;28.76;98604.47;4974081;28;997;-76
2022/05/09 11:50:52;;;;;;;;;;;;;;;21.51;28.78;98602.53;4954549;29;965;-75
2022/05/09 11:53:18;;;;;;;;;;;;;;;21.49;28.87;98588.78;4955271;28;917;-75
2022/05/09 11:55:44;;;;;;;;;;;;;;;21.73;28.83;98600.91;4935412;29;1007;-75
2022/05/09 11:58:09;;;;;;;;;;;;;;;22.07;27.88;98597.03;4920207;29;1067;-75
2022/05/09 12:00:38;;;;;;;;;;;;;;;22.19;27.77;98604.94;4919990;29;1907;-74
2022/05/09 12:03:07;;;;;;;;;;;;;;;21.70;28.58;98595.28;4935734;29;1022;-75
2022/05/09 12:05:32;;;;;;;;;;;;;;;21.65;28.63;98593.75;4935333;29;964;-75
2022/05/09 12:08:05;;;;;;;;;;;;;;;21.59;28.47;98587.00;4935424;29;1040;-75
2022/05/09 12:10:32;;;;;;;;;;;;;;;21.61;28.43;98583.75;4929049;29;991;-75
2022/05/09 12:13:07;;;;;;;;;;;;;;;21.83;28.61;98582.13;4909013;29;988;-75
2022/05/09 12:15:34;;;;;;;;;;;;;;;22.09;27.93;98583.25;4935530;29;1045;-75
2022/05/09 12:18:05;;;;;;;;;;;;;;;21.85;28.17;98574.78;4935818;29;1016;-76
2022/05/09 12:20:30;;;;;;;;;;;;;;;21.58;28.64;98565.56;4935882;29;1981;-75
2022/05/09 12:22:57;;;;;;;;;;;;;;;21.62;28.54;98574.81;4953688;29;961;-76
2022/05/09 12:25:44;;;;;;;;;;;;;;;21.70;28.14;98567.78;4938758;29;983;-75
2022/05/09 12:28:18;;;;;;;;;;;;;;;21.57;28.62;98572.47;4975113;28;1076;-76
2022/05/09 12:30:56;;;;;;;;;;;;;;;21.83;28.41;98567.97;4977664;28;998;-76
2022/05/09 12:33:36;;;;;;;;;;;;;;;21.90;28.49;98559.31;4977591;28;1005;-75
2022/05/09 12:36:03;;;;;;;;;;;;;;;22.07;27.97;98575.19;4988767;28;956;-76
2022/05/09 12:38:31;;;;;;;;;;;;;;;21.69;28.38;98560.50;5017051;28;995;-75
2022/05/09 12:41:22;;;;;;;;;;;;;;;21.59;28.78;98561.50;5016892;28;1906;-76
2022/05/09 12:43:52;;;;;;;;;;;;;;;21.57;28.51;98552.66;4996586;28;1192;-76
2022/05/09 12:46:25;;;;;;;;;;;;;;;21.61;28.57;98547.72;4996585;28;973;-76
2022/05/09 12:48:51;;;;;;;;;;;;;;;21.94;28.13;98542.25;4957651;28;1010;-76
2022/05/09 12:51:16;;;;;;;;;;;;;;;22.08;27.75;98541.97;4925929;29;1074;-76
2022/05/09 12:53:42;;;;;;;;;;;;;;;21.91;28.18;98538.25;4958152;29;1332;-75
2022/05/09 12:56:09;;;;;;;;;;;;;;;21.63;28.40;98536.75;4958231;29;945;-76
2022/05/09 12:58:36;;;;;;;;;;;;;;;21.59;28.53;98538.84;4938587;29;1001;-76
2022/05/09 13:01:25;;;;;;;;;;;;;;;21.52;28.56;98539.00;4957797;29;1911;-76
2022/05/09 13:03:58;;;;;;;;;;;;;;;21.52;29.03;98533.31;4957785;29;956;-76
2022/05/09 13:06:28;;;;;;;;;;;;;;;21.92;28.25;98527.75;4957771;29;982;-75
2022/05/09 13:08:53;;;;;;;;;;;;;;;22.04;28.13;98535.59;4957666;29;1004;-76
2022/05/09 13:11:20;;;;;;;;;;;;;;;21.78;28.39;98523.94;4957776;29;1011;-75
2022/05/09 13:13:58;;;;;;;;;;;;;;;21.80;28.31;98527.13;4919035;29;955;-75
2022/05/09 13:16:24;;;;;;;;;;;;;;;21.55;28.61;98523.94;4903849;29;1257;-76
2022/05/09 13:18:50;;;;;;;;;;;;;;;21.44;28.72;98523.34;4906603;29;1024;-76
2022/05/09 13:21:20;;;;;;;;;;;;;;;21.42;28.86;98528.66;4956117;28;1974;-75
2022/05/09 13:23:46;;;;;;;;;;;;;;;21.61;28.91;98524.28;4976641;28;1016;-75
2022/05/09 13:26:15;;;;;;;;;;;;;;;21.93;28.20;98518.00;4977234;28;1154;-76
2022/05/09 13:28:42;;;;;;;;;;;;;;;22.17;27.66;98513.06;4974140;28;963;-76